Time;durP1;ratioP1;P1;durP2;ratioP2;P2;SDS_P1;SDS_P2;PMS_P1;PMS_P2;Temp;Humidity;BMP_temperature;BMP_pressure;BME280_temperature;BME280_humidity;BME280_pressure;Samples;Min_cycle;Max_cycle;Signal;HPM_P1;HPM_P2
2022/09/16 00:02:03;;;;;;;1.50;0.50;;;12.00;99.90;;;;;;4936442;28;20186;-88
2022/09/16 00:04:28;;;;;;;4.05;0.60;;;12.00;99.90;;;;;;4936615;29;20185;-90
2022/09/16 00:06:54;;;;;;;1.95;0.65;;;12.00;99.90;;;;;;4945370;29;20181;-89
2022/09/16 00:09:19;;;;;;;3.17;0.90;;;12.00;99.90;;;;;;4955830;28;20185;-91
2022/09/16 00:11:46;;;;;;;1.88;0.60;;;12.00;99.90;;;;;;4951071;28;20233;-90
2022/09/16 00:14:12;;;;;;;1.95;0.80;;;11.90;99.90;;;;;;4936445;29;20188;-89
2022/09/16 00:16:39;;;;;;;3.25;0.80;;;12.00;99.90;;;;;;4938111;29;20265;-89
2022/09/16 00:19:04;;;;;;;3.00;0.80;;;11.90;99.90;;;;;;4936328;29;20189;-92
2022/09/16 00:21:30;;;;;;;4.50;0.80;;;11.90;99.90;;;;;;4937571;29;20220;-92
2022/09/16 00:23:56;;;;;;;3.75;0.70;;;11.90;99.90;;;;;;4937503;29;20189;-90
2022/09/16 00:26:22;;;;;;;1.48;0.60;;;11.90;99.90;;;;;;4936408;29;20178;-88
2022/09/16 00:28:49;;;;;;;5.60;0.70;;;11.90;99.90;;;;;;4936368;29;20202;-88
2022/09/16 00:31:16;;;;;;;3.20;0.70;;;11.90;99.90;;;;;;4942136;29;20178;-88
2022/09/16 00:33:42;;;;;;;1.95;0.75;;;11.80;99.90;;;;;;4948661;28;20197;-90
2022/09/16 00:36:11;;;;;;;3.13;0.90;;;11.80;99.90;;;;;;4936009;29;20224;-91
2022/09/16 00:38:37;;;;;;;4.60;0.73;;;11.80;99.90;;;;;;4936179;29;20189;-91
2022/09/16 00:41:04;;;;;;;3.58;0.82;;;11.80;99.90;;;;;;4936955;28;20382;-90
2022/09/16 00:43:50;;;;;;;1.95;0.60;;;11.80;99.90;;;;;;4940585;28;20178;-90
2022/09/16 00:46:20;;;;;;;2.47;1.30;;;11.80;99.90;;;;;;4940049;29;20688;-91
2022/09/16 00:48:46;;;;;;;2.47;0.70;;;11.80;99.90;;;;;;4941623;29;20190;-88
2022/09/16 00:51:14;;;;;;;2.63;0.70;;;11.90;99.90;;;;;;4945862;28;20530;-89
2022/09/16 00:53:48;;;;;;;4.20;0.90;;;11.80;99.90;;;;;;4948271;28;20764;-90
2022/09/16 00:56:17;;;;;;;2.72;0.70;;;11.80;99.90;;;;;;4950511;28;20192;-90
2022/09/16 00:58:51;;;;;;;3.70;0.88;;;11.90;99.90;;;;;;4944379;28;20186;-90
2022/09/16 01:01:16;;;;;;;1.23;0.52;;;11.80;99.90;;;;;;4939462;29;20217;-90
2022/09/16 01:03:57;;;;;;;2.67;0.77;;;11.80;99.90;;;;;;4939339;29;20205;-87
2022/09/16 01:06:25;;;;;;;3.53;0.65;;;11.70;99.90;;;;;;4939520;29;20329;-90
2022/09/16 01:08:51;;;;;;;3.17;0.90;;;11.70;99.90;;;;;;4939605;29;20249;-90
2022/09/16 01:11:16;;;;;;;1.15;0.60;;;11.60;99.90;;;;;;4948041;29;20234;-89
2022/09/16 01:13:44;;;;;;;4.00;0.77;;;11.70;99.90;;;;;;4948495;29;20244;-92
2022/09/16 01:16:22;;;;;;;2.47;0.60;;;11.70;99.90;;;;;;4946080;29;20220;-92
2022/09/16 01:19:14;;;;;;;2.42;0.93;;;11.70;99.90;;;;;;4955392;29;20208;-90
2022/09/16 01:22:03;;;;;;;3.70;0.85;;;11.70;99.90;;;;;;4948088;29;20200;-90
2022/09/16 01:25:08;;;;;;;4.97;0.70;;;11.80;99.90;;;;;;4937919;29;20265;-93
2022/09/16 01:27:52;;;;;;;3.72;0.93;;;11.80;99.90;;;;;;4934239;29;20633;-93
2022/09/16 01:30:37;;;;;;;6.00;0.90;;;11.80;99.90;;;;;;4948404;29;20189;-90
2022/09/16 01:33:18;;;;;;;2.15;0.75;;;11.80;99.90;;;;;;4948134;29;20261;-87
2022/09/16 01:35:52;;;;;;;1.88;0.68;;;11.80;99.90;;;;;;4940207;29;20189;-86
2022/09/16 01:38:35;;;;;;;5.03;0.82;;;11.90;99.90;;;;;;4940054;29;20193;-86
2022/09/16 01:41:26;;;;;;;4.70;0.98;;;11.90;99.90;;;;;;4938868;29;20622;-87
2022/09/16 01:44:10;;;;;;;4.20;0.70;;;11.90;99.90;;;;;;4946850;29;20192;-85
2022/09/16 01:47:00;;;;;;;3.20;0.88;;;12.00;99.90;;;;;;4940049;29;20188;-88
2022/09/16 01:49:45;;;;;;;4.78;0.90;;;11.90;99.90;;;;;;4938556;29;20196;-87
2022/09/16 01:52:37;;;;;;;3.35;0.70;;;11.90;99.90;;;;;;4949681;29;20184;-91
2022/09/16 01:55:07;;;;;;;1.15;0.55;;;12.00;99.90;;;;;;4947340;28;20189;-92
2022/09/16 01:57:51;;;;;;;2.97;0.90;;;12.00;99.90;;;;;;4939135;29;20224;-93
2022/09/16 02:00:17;;;;;;;1.55;0.50;;;12.00;99.90;;;;;;4943264;28;20216;-93
2022/09/16 02:03:23;;;;;;;2.67;0.82;;;11.90;99.90;;;;;;4938648;29;20193;-92
2022/09/16 02:06:20;;;;;;;3.63;0.80;;;11.90;99.90;;;;;;4937934;29;20232;-94
2022/09/16 02:08:58;;;;;;;3.08;0.80;;;11.90;99.90;;;;;;4940423;29;20236;-89
2022/09/16 02:11:24;;;;;;;4.75;0.80;;;11.90;99.90;;;;;;4939588;29;20308;-93
2022/09/16 02:13:56;;;;;;;3.80;0.90;;;11.90;99.90;;;;;;4946067;28;20197;-92
2022/09/16 02:16:40;;;;;;;3.42;0.90;;;11.90;99.90;;;;;;4944834;28;20181;-92
2022/09/16 02:19:12;;;;;;;3.17;0.65;;;11.90;99.90;;;;;;4937949;29;20249;-93
2022/09/16 02:21:40;;;;;;;3.90;0.85;;;11.80;99.90;;;;;;4940123;29;20205;-94
2022/09/16 02:24:20;;;;;;;2.97;0.60;;;11.80;99.90;;;;;;4949116;28;20193;-95
2022/09/16 02:26:55;;;;;;;4.00;0.68;;;11.80;99.90;;;;;;4947173;29;20193;-93
2022/09/16 02:29:25;;;;;;;3.67;0.80;;;11.80;99.90;;;;;;4946295;29;20580;-94
2022/09/16 02:31:55;;;;;;;4.35;0.70;;;11.80;99.90;;;;;;4939397;29;20190;-94
2022/09/16 02:34:47;;;;;;;6.20;0.60;;;11.80;99.90;;;;;;4954131;29;20181;-94
2022/09/16 02:37:30;;;;;;;5.18;1.27;;;11.80;99.90;;;;;;4957483;29;20188;-93
2022/09/16 02:40:01;;;;;;;3.35;0.77;;;11.70;99.90;;;;;;4957440;29;20209;-91
2022/09/16 02:42:27;;;;;;;2.53;0.63;;;11.70;99.90;;;;;;4957549;28;20173;-92
2022/09/16 02:45:04;;;;;;;4.88;0.90;;;11.70;99.90;;;;;;4958459;29;20200;-92
2022/09/16 02:48:11;;;;;;;1.30;0.70;;;11.60;99.90;;;;;;4952149;29;20214;-93
2022/09/16 02:50:49;;;;;;;6.28;0.90;;;11.70;99.90;;;;;;4910015;29;20280;-94
2022/09/16 02:53:30;;;;;;;1.60;0.75;;;11.60;99.90;;;;;;4937655;29;20196;-93
2022/09/16 02:56:02;;;;;;;1.60;0.63;;;11.60;99.90;;;;;;4938015;29;20192;-92
2022/09/16 02:58:28;;;;;;;2.47;0.73;;;11.60;99.90;;;;;;4938987;29;20162;-91
2022/09/16 03:00:56;;;;;;;5.22;1.00;;;11.50;99.90;;;;;;4938846;29;20209;-93
2022/09/16 03:03:21;;;;;;;2.75;1.00;;;11.50;99.90;;;;;;4937393;29;20193;-94
2022/09/16 03:06:12;;;;;;;2.97;0.70;;;11.50;99.90;;;;;;4937469;29;20225;-93
2022/09/16 03:08:38;;;;;;;2.28;0.70;;;11.50;99.90;;;;;;4938877;29;20162;-93
2022/09/16 03:11:35;;;;;;;2.95;0.75;;;11.40;99.90;;;;;;4938621;29;20320;-90
2022/09/16 03:14:31;;;;;;;2.28;0.90;;;11.50;99.90;;;;;;4938364;29;20642;-88
2022/09/16 03:17:06;;;;;;;4.10;0.70;;;11.40;99.90;;;;;;4938644;29;20184;-92
2022/09/16 03:19:42;;;;;;;2.97;0.90;;;11.40;99.90;;;;;;4937271;29;20178;-93
2022/09/16 03:22:38;;;;;;;2.38;0.70;;;11.40;99.90;;;;;;4937220;29;20189;-91
2022/09/16 03:25:17;;;;;;;4.13;0.65;;;11.30;99.90;;;;;;4938404;29;20205;-93
2022/09/16 03:28:19;;;;;;;3.40;0.90;;;11.30;99.90;;;;;;4937433;29;20176;-92
2022/09/16 03:31:00;;;;;;;6.13;1.17;;;11.30;99.90;;;;;;4934245;29;20185;-93
2022/09/16 03:33:56;;;;;;;2.15;0.70;;;11.20;99.90;;;;;;4937944;29;20186;-93
2022/09/16 03:36:27;;;;;;;2.70;0.75;;;11.20;99.90;;;;;;4932093;29;20186;-93
2022/09/16 03:38:55;;;;;;;3.15;0.80;;;11.20;99.90;;;;;;4938313;29;20176;-94
2022/09/16 03:41:22;;;;;;;1.92;0.73;;;11.20;99.90;;;;;;4938150;29;20206;-94
2022/09/16 03:43:56;;;;;;;3.28;0.50;;;11.20;99.90;;;;;;4937025;29;20273;-94
2022/09/16 03:46:22;;;;;;;4.72;0.98;;;11.20;99.90;;;;;;4936957;29;20186;-93
2022/09/16 03:48:48;;;;;;;9.00;1.10;;;11.20;99.90;;;;;;4938260;29;20202;-94
2022/09/16 03:51:14;;;;;;;3.28;0.80;;;11.20;99.90;;;;;;4942978;29;20192;-90
2022/09/16 03:53:40;;;;;;;4.82;1.00;;;11.20;99.90;;;;;;4937077;29;20273;-93
2022/09/16 03:56:13;;;;;;;3.67;0.88;;;11.20;99.90;;;;;;4937090;29;20224;-93
2022/09/16 03:58:38;;;;;;;3.28;0.85;;;11.20;99.90;;;;;;4937111;29;20170;-94
2022/09/16 04:01:04;;;;;;;8.50;1.10;;;11.20;99.90;;;;;;4936807;29;20224;-92
2022/09/16 04:03:30;;;;;;;4.65;1.10;;;11.20;99.90;;;;;;4945082;29;20248;-93
2022/09/16 04:05:56;;;;;;;5.18;0.80;;;11.20;99.90;;;;;;4955667;29;20192;-90
2022/09/16 04:08:22;;;;;;;4.43;0.90;;;11.20;99.90;;;;;;4955694;29;20275;-90
2022/09/16 04:11:06;;;;;;;3.08;0.77;;;11.20;99.90;;;;;;4955695;28;20611;-89
2022/09/16 04:13:34;;;;;;;2.58;0.88;;;11.30;99.90;;;;;;4955801;29;20181;-93
2022/09/16 04:16:03;;;;;;;3.38;0.80;;;11.30;99.90;;;;;;4955013;28;20248;-86
2022/09/16 04:18:33;;;;;;;3.42;0.73;;;11.30;99.90;;;;;;4955282;28;20189;-86
2022/09/16 04:21:01;;;;;;;2.35;0.70;;;11.30;99.90;;;;;;4955981;28;20245;-87
2022/09/16 04:23:27;;;;;;;2.90;0.85;;;11.30;99.90;;;;;;4937188;28;20543;-86
2022/09/16 04:25:57;;;;;;;4.10;0.90;;;11.30;99.90;;;;;;4937163;29;20201;-85
2022/09/16 04:28:23;;;;;;;4.00;1.00;;;11.30;99.90;;;;;;4935824;29;20177;-87
2022/09/16 04:30:49;;;;;;;3.03;0.80;;;11.30;99.90;;;;;;4936111;29;20493;-86
2022/09/16 04:33:15;;;;;;;7.13;1.00;;;11.30;99.90;;;;;;4942219;29;20616;-85
2022/09/16 04:35:41;;;;;;;2.53;0.88;;;11.30;99.90;;;;;;4954797;28;20187;-86
2022/09/16 04:38:06;;;;;;;3.40;0.90;;;11.30;99.90;;;;;;4956046;28;20616;-86
2022/09/16 04:40:32;;;;;;;2.88;1.10;;;11.30;99.90;;;;;;4956286;28;20244;-93
2022/09/16 04:42:58;;;;;;;10.48;1.02;;;11.30;99.90;;;;;;4956287;28;20180;-87
2022/09/16 04:45:26;;;;;;;1.52;0.65;;;11.30;99.90;;;;;;4956403;28;21086;-86
2022/09/16 04:47:56;;;;;;;4.95;0.90;;;11.30;99.90;;;;;;4939914;29;20193;-86
2022/09/16 04:50:22;;;;;;;1.98;0.85;;;11.30;99.90;;;;;;4935544;29;20214;-89
2022/09/16 04:52:48;;;;;;;1.98;1.00;;;11.40;99.90;;;;;;4935487;28;20210;-87
2022/09/16 04:55:13;;;;;;;3.17;0.95;;;11.40;99.90;;;;;;4935836;28;20189;-91
2022/09/16 04:57:40;;;;;;;4.22;1.10;;;11.40;99.90;;;;;;4936322;28;20200;-90
2022/09/16 05:00:07;;;;;;;2.63;1.05;;;11.40;99.90;;;;;;4937282;29;20206;-89
2022/09/16 05:02:32;;;;;;;3.70;1.10;;;11.40;99.90;;;;;;4936985;29;20261;-88
2022/09/16 05:04:58;;;;;;;4.18;1.30;;;11.50;99.90;;;;;;4946215;29;20260;-85
2022/09/16 05:07:24;;;;;;;3.78;0.85;;;11.50;99.90;;;;;;4954865;28;20209;-87
2022/09/16 05:09:49;;;;;;;2.78;1.13;;;11.50;99.90;;;;;;4954729;28;20186;-84
2022/09/16 05:12:15;;;;;;;6.30;1.40;;;11.50;99.90;;;;;;4954608;28;20193;-86
2022/09/16 05:14:41;;;;;;;3.60;1.20;;;11.50;99.90;;;;;;4956354;29;20180;-90
2022/09/16 05:17:07;;;;;;;3.38;1.20;;;11.50;99.90;;;;;;4955270;28;20277;-92
2022/09/16 05:19:33;;;;;;;1.63;0.80;;;11.50;99.90;;;;;;4938556;28;20210;-93
2022/09/16 05:21:58;;;;;;;3.83;1.00;;;11.50;99.90;;;;;;4935954;28;20654;-92
2022/09/16 05:24:27;;;;;;;5.90;1.00;;;11.50;99.90;;;;;;4955336;29;20193;-90
2022/09/16 05:26:53;;;;;;;4.20;1.00;;;11.50;99.90;;;;;;4956475;28;20169;-89
2022/09/16 05:29:18;;;;;;;4.45;1.00;;;11.50;99.90;;;;;;4958570;28;20613;-94
2022/09/16 05:31:47;;;;;;;8.98;1.00;;;11.60;99.90;;;;;;4959685;28;20177;-88
2022/09/16 05:34:16;;;;;;;3.47;0.88;;;11.60;99.90;;;;;;4957721;28;20272;-88
2022/09/16 05:36:43;;;;;;;3.67;0.82;;;11.70;99.90;;;;;;4952031;28;20531;-89
2022/09/16 05:39:10;;;;;;;4.68;1.00;;;11.80;99.90;;;;;;4940201;29;20181;-89
2022/09/16 05:41:36;;;;;;;2.85;0.82;;;11.80;99.90;;;;;;4939465;29;20353;-90
2022/09/16 05:44:03;;;;;;;3.47;0.90;;;11.80;99.90;;;;;;4956576;29;20631;-90
2022/09/16 05:46:28;;;;;;;1.88;0.90;;;11.90;99.90;;;;;;4948878;28;20245;-88
2022/09/16 05:48:55;;;;;;;1.58;0.70;;;11.90;99.90;;;;;;4941260;29;20260;-91
2022/09/16 05:51:22;;;;;;;5.15;1.08;;;11.90;99.90;;;;;;4941627;29;20315;-88
2022/09/16 05:53:50;;;;;;;2.88;1.00;;;11.90;99.90;;;;;;4938629;29;20181;-94
2022/09/16 05:56:18;;;;;;;4.70;1.00;;;11.90;99.90;;;;;;4940212;29;20198;-94
2022/09/16 05:58:44;;;;;;;3.17;0.90;;;11.90;99.90;;;;;;4939107;29;20241;-93
2022/09/16 06:01:15;;;;;;;2.55;0.90;;;11.90;99.90;;;;;;4938731;29;20606;-94
2022/09/16 06:03:42;;;;;;;1.58;0.80;;;12.00;99.90;;;;;;4940024;29;20185;-94
2022/09/16 06:06:21;;;;;;;5.72;1.10;;;12.00;99.90;;;;;;4938502;29;20561;-94
2022/09/16 06:08:47;;;;;;;5.20;1.13;;;12.00;99.90;;;;;;4950055;29;20280;-94
2022/09/16 06:11:13;;;;;;;3.05;1.00;;;12.00;99.90;;;;;;4954111;29;20305;-95
2022/09/16 06:13:39;;;;;;;5.90;0.80;;;12.10;99.90;;;;;;4957888;28;20195;-94
2022/09/16 06:16:07;;;;;;;7.10;1.08;;;12.00;99.90;;;;;;4957670;28;20177;-95
2022/09/16 06:18:33;;;;;;;1.38;0.80;;;12.00;99.90;;;;;;4946135;28;20201;-92
2022/09/16 06:21:06;;;;;;;1.40;0.80;;;12.00;99.90;;;;;;4957330;28;20554;-94
2022/09/16 06:23:32;;;;;;;5.38;0.90;;;12.00;99.90;;;;;;4919753;29;20206;-94
2022/09/16 06:26:04;;;;;;;4.65;0.90;;;12.10;99.90;;;;;;4937947;29;20596;-94
2022/09/16 06:28:30;;;;;;;5.25;0.60;;;12.20;99.90;;;;;;4958776;28;20511;-94
2022/09/16 06:31:18;;;;;;;2.95;0.85;;;12.30;99.90;;;;;;4958441;28;20589;-95
2022/09/16 06:33:44;;;;;;;4.72;1.13;;;12.40;99.90;;;;;;4951314;28;20181;-94
2022/09/16 06:36:35;;;;;;;4.00;0.73;;;12.40;99.90;;;;;;4955252;28;20583;-94
2022/09/16 06:39:01;;;;;;;3.15;0.82;;;12.30;99.90;;;;;;4956655;28;20581;-93
2022/09/16 06:41:27;;;;;;;2.47;0.75;;;12.30;99.90;;;;;;4957349;29;20295;-94
2022/09/16 06:43:53;;;;;;;2.95;0.68;;;12.30;99.90;;;;;;4958390;29;20639;-95
2022/09/16 06:46:22;;;;;;;2.42;0.80;;;12.30;99.90;;;;;;4955443;29;20651;-94
2022/09/16 06:48:50;;;;;;;5.68;0.90;;;12.30;99.90;;;;;;4957162;28;20178;-95
2022/09/16 06:51:18;;;;;;;3.25;0.80;;;12.40;99.90;;;;;;4956956;28;20196;-93
2022/09/16 06:53:45;;;;;;;2.08;0.60;;;12.40;99.90;;;;;;4956383;28;20221;-91
2022/09/16 06:56:13;;;;;;;4.93;1.15;;;12.50;99.90;;;;;;4956842;29;20219;-94
2022/09/16 06:58:41;;;;;;;3.10;1.15;;;12.50;99.90;;;;;;4958230;28;20218;-94
2022/09/16 07:01:13;;;;;;;2.90;0.93;;;12.60;99.90;;;;;;4952640;28;20281;-94
2022/09/16 07:03:40;;;;;;;5.22;1.30;;;12.70;99.90;;;;;;4937175;29;20628;-93
2022/09/16 07:06:07;;;;;;;3.22;1.00;;;12.80;99.90;;;;;;4937145;29;20214;-94
2022/09/16 07:08:34;;;;;;;2.35;1.10;;;12.90;99.90;;;;;;4937390;29;20221;-94
2022/09/16 07:11:21;;;;;;;3.45;1.33;;;12.90;99.90;;;;;;4937403;29;20688;-93
2022/09/16 07:13:48;;;;;;;3.72;1.67;;;12.80;99.90;;;;;;4937464;29;20208;-93
2022/09/16 07:16:19;;;;;;;4.28;1.45;;;12.80;99.90;;;;;;4937243;29;20633;-94
2022/09/16 07:18:47;;;;;;;4.05;1.40;;;12.90;99.90;;;;;;4941262;28;20593;-93
2022/09/16 07:21:18;;;;;;;5.35;1.60;;;12.90;99.90;;;;;;4956087;28;20217;-92
2022/09/16 07:23:44;;;;;;;4.18;1.58;;;13.10;99.90;;;;;;4956368;28;20178;-93
2022/09/16 07:26:14;;;;;;;5.68;2.05;;;13.20;99.90;;;;;;4956510;28;20238;-88
2022/09/16 07:28:42;;;;;;;4.22;2.45;;;13.20;99.90;;;;;;4957522;29;20213;-88
2022/09/16 07:31:12;;;;;;;4.00;1.95;;;13.30;99.90;;;;;;4956299;28;20236;-89
2022/09/16 07:33:43;;;;;;;4.78;2.10;;;13.30;99.90;;;;;;4956125;28;20268;-95
2022/09/16 07:36:10;;;;;;;5.78;1.98;;;13.40;99.90;;;;;;4956984;29;20252;-90
2022/09/16 07:38:36;;;;;;;3.00;1.60;;;13.50;99.90;;;;;;4955749;29;20173;-94
2022/09/16 07:41:10;;;;;;;3.10;1.83;;;13.40;99.90;;;;;;4952674;28;20559;-94
2022/09/16 07:43:37;;;;;;;5.82;1.90;;;13.50;99.90;;;;;;4955769;29;20176;-93
2022/09/16 07:46:03;;;;;;;3.30;1.58;;;13.50;99.90;;;;;;4956846;28;20184;-92
2022/09/16 07:48:30;;;;;;;3.70;1.63;;;13.60;99.90;;;;;;4948199;29;20185;-94
2022/09/16 07:50:59;;;;;;;4.45;1.70;;;13.70;99.90;;;;;;4936731;29;20197;-94
2022/09/16 07:53:28;;;;;;;2.05;1.40;;;13.80;99.90;;;;;;4936337;29;20196;-93
2022/09/16 07:55:53;;;;;;;3.15;1.42;;;13.80;99.90;;;;;;4936277;29;20185;-93
2022/09/16 07:58:20;;;;;;;7.07;1.30;;;13.90;99.90;;;;;;4936073;29;20174;-91
2022/09/16 08:00:47;;;;;;;4.93;1.15;;;14.00;99.90;;;;;;4935475;29;20708;-93
2022/09/16 08:03:13;;;;;;;4.15;1.50;;;14.00;99.90;;;;;;4937095;28;20173;-93
2022/09/16 08:05:39;;;;;;;6.00;1.23;;;13.90;99.90;;;;;;4943577;29;20188;-91
2022/09/16 08:08:05;;;;;;;2.80;1.05;;;13.90;99.90;;;;;;4954240;29;20177;-90
2022/09/16 08:10:30;;;;;;;4.95;1.10;;;13.90;99.90;;;;;;4954916;29;20236;-93
2022/09/16 08:12:56;;;;;;;6.47;1.17;;;13.90;99.90;;;;;;4954439;28;20632;-92
2022/09/16 08:15:22;;;;;;;11.20;1.33;;;13.90;99.90;;;;;;4953816;28;20269;-93
2022/09/16 08:17:47;;;;;;;2.45;0.80;;;13.90;99.90;;;;;;4955116;28;20173;-93
2022/09/16 08:20:13;;;;;;;5.80;1.02;;;14.00;99.90;;;;;;4954526;28;20209;-92
2022/09/16 08:22:39;;;;;;;4.30;1.20;;;14.00;99.90;;;;;;4943404;28;20186;-89
2022/09/16 08:25:05;;;;;;;5.28;1.00;;;14.00;99.90;;;;;;4937817;29;20216;-91
2022/09/16 08:27:34;;;;;;;5.95;0.90;;;14.10;99.90;;;;;;4939560;28;20174;-89
2022/09/16 08:30:00;;;;;;;6.55;1.17;;;14.20;99.90;;;;;;4939970;28;20265;-94
2022/09/16 08:32:25;;;;;;;5.60;1.15;;;14.30;99.90;;;;;;4939613;28;20661;-92
2022/09/16 08:34:52;;;;;;;3.80;0.90;;;14.30;99.90;;;;;;4943991;29;20265;-91
2022/09/16 08:37:18;;;;;;;3.50;1.02;;;14.50;99.90;;;;;;4938007;28;20703;-91
2022/09/16 08:39:43;;;;;;;5.55;0.77;;;14.60;99.90;;;;;;4955010;29;20173;-90
2022/09/16 08:42:48;;;;;;;7.43;1.08;;;14.70;99.90;;;;;;4954230;28;20318;-91
2022/09/16 08:45:53;;;;;;;4.68;1.08;;;14.60;99.90;;;;;;4954550;28;20196;-93
2022/09/16 08:48:41;;;;;;;4.03;0.90;;;14.60;99.90;;;;;;4954504;28;20177;-93
2022/09/16 08:51:12;;;;;;;7.63;1.17;;;14.60;99.90;;;;;;4954139;29;20220;-93
2022/09/16 08:53:44;;;;;;;5.32;1.13;;;14.60;99.90;;;;;;4954642;29;20178;-89
2022/09/16 08:56:21;;;;;;;5.90;1.17;;;14.70;99.90;;;;;;4955741;29;20165;-87
2022/09/16 08:58:52;;;;;;;6.22;1.20;;;14.90;99.90;;;;;;4954330;28;20634;-89
2022/09/16 09:01:30;;;;;;;9.75;1.20;;;14.90;99.90;;;;;;4956230;28;20197;-93
2022/09/16 09:03:56;;;;;;;6.30;0.98;;;15.00;99.90;;;;;;4958277;29;20170;-89
2022/09/16 09:06:27;;;;;;;6.50;1.25;;;15.00;99.90;;;;;;4956661;28;20208;-88
2022/09/16 09:09:01;;;;;;;9.88;1.48;;;15.00;99.90;;;;;;4948070;29;20182;-90
2022/09/16 09:11:49;;;;;;;7.43;0.85;;;15.20;99.90;;;;;;4939590;29;20303;-87
2022/09/16 09:14:37;;;;;;;4.65;1.08;;;15.30;99.90;;;;;;4939770;29;20224;-88
2022/09/16 09:17:23;;;;;;;4.80;1.00;;;15.40;99.90;;;;;;4942195;29;20244;-87
2022/09/16 09:20:36;;;;;;;7.93;0.93;;;15.40;99.90;;;;;;4936861;29;20214;-88
2022/09/16 09:23:15;;;;;;;4.88;0.90;;;15.50;99.90;;;;;;4899426;29;20191;-88
2022/09/16 09:25:56;;;;;;;6.25;0.98;;;15.50;99.90;;;;;;4899680;29;20183;-91
2022/09/16 09:28:44;;;;;;;5.85;0.70;;;15.50;99.90;;;;;;4922918;29;20514;-88
2022/09/16 09:31:39;;;;;;;5.88;1.17;;;15.60;99.90;;;;;;4939422;29;20190;-89
2022/09/16 09:34:25;;;;;;;4.55;1.00;;;15.70;99.90;;;;;;4923495;29;20197;-92
2022/09/16 09:37:39;;;;;;;4.18;1.25;;;15.90;99.90;;;;;;4939209;29;20185;-91
2022/09/16 09:40:26;;;;;;;6.45;1.08;;;16.00;99.90;;;;;;4899449;29;20211;-87
2022/09/16 09:43:04;;;;;;;4.72;0.85;;;16.20;99.90;;;;;;4936779;29;20201;-88
2022/09/16 09:45:38;;;;;;;4.00;0.80;;;16.20;99.90;;;;;;4939315;28;20189;-87
2022/09/16 09:48:28;;;;;;;8.68;0.88;;;16.10;99.70;;;;;;4938042;28;20209;-89
2022/09/16 09:50:58;;;;;;;7.22;1.30;;;16.00;99.90;;;;;;4937907;29;20536;-87
2022/09/16 09:53:30;;;;;;;6.50;1.08;;;15.70;99.90;;;;;;4938360;29;20181;-88
2022/09/16 09:56:22;;;;;;;6.75;1.58;;;15.60;99.90;;;;;;4937960;29;20513;-88
2022/09/16 09:59:03;;;;;;;5.03;1.05;;;15.60;99.90;;;;;;4937568;29;20184;-87
2022/09/16 10:01:29;;;;;;;8.23;1.05;;;15.50;99.90;;;;;;4938571;29;20205;-86
2022/09/16 10:03:56;;;;;;;5.10;0.90;;;15.60;99.70;;;;;;4937329;28;20270;-88
2022/09/16 10:06:32;;;;;;;11.07;1.20;;;15.60;99.90;;;;;;4937146;29;20186;-88
2022/09/16 10:08:58;;;;;;;8.68;0.93;;;15.70;98.90;;;;;;4937698;29;20201;-87
2022/09/16 10:11:27;;;;;;;6.47;1.05;;;15.70;99.50;;;;;;4940395;29;20621;-87
2022/09/16 10:13:59;;;;;;;6.55;0.88;;;15.70;99.70;;;;;;4955773;28;20189;-91
2022/09/16 10:16:32;;;;;;;5.82;1.10;;;15.90;99.10;;;;;;4956429;28;20483;-88
2022/09/16 10:19:05;;;;;;;3.70;0.82;;;16.10;98.60;;;;;;4955131;28;20228;-88
2022/09/16 10:21:46;;;;;;;8.75;1.45;;;16.20;97.50;;;;;;4937965;29;20201;-85
2022/09/16 10:24:35;;;;;;;7.40;1.00;;;16.30;97.50;;;;;;4948912;29;20180;-87
2022/09/16 10:27:16;;;;;;;7.13;1.10;;;16.20;98.80;;;;;;4948836;29;20182;-87
2022/09/16 10:29:42;;;;;;;3.80;0.82;;;16.30;99.60;;;;;;4937221;29;20677;-86
2022/09/16 10:32:11;;;;;;;2.58;0.63;;;16.50;99.10;;;;;;4937719;29;20277;-87
2022/09/16 10:34:39;;;;;;;6.53;1.15;;;16.70;99.60;;;;;;4937970;29;20178;-86
2022/09/16 10:37:13;;;;;;;5.13;1.00;;;16.70;98.10;;;;;;4936091;29;20182;-87
2022/09/16 10:39:49;;;;;;;9.02;1.63;;;16.70;97.90;;;;;;4936717;29;20169;-87
2022/09/16 10:42:20;;;;;;;5.72;0.85;;;16.60;98.00;;;;;;4936165;29;20220;-87
2022/09/16 10:44:47;;;;;;;3.30;0.60;;;16.60;97.10;;;;;;4936816;29;20563;-89
2022/09/16 10:47:29;;;;;;;6.10;0.75;;;16.50;96.20;;;;;;4938054;29;20220;-87
2022/09/16 10:50:04;;;;;;;1.55;0.60;;;16.50;96.80;;;;;;4937895;29;20165;-86
2022/09/16 10:52:39;;;;;;;4.07;0.80;;;16.30;97.40;;;;;;4937941;29;20240;-87
2022/09/16 10:55:34;;;;;;;7.47;0.85;;;16.40;97.60;;;;;;4937961;29;20200;-88
2022/09/16 10:58:16;;;;;;;5.25;0.80;;;16.70;95.90;;;;;;4938738;29;20522;-88
2022/09/16 11:00:56;;;;;;;5.30;0.93;;;16.70;97.30;;;;;;4945906;28;20289;-88
2022/09/16 11:03:55;;;;;;;1.92;0.70;;;16.50;97.30;;;;;;4937712;29;20166;-87
2022/09/16 11:06:50;;;;;;;2.92;0.75;;;16.20;96.60;;;;;;4936038;29;20189;-88
2022/09/16 11:09:33;;;;;;;4.40;0.80;;;16.00;97.30;;;;;;4954216;29;20212;-87
2022/09/16 11:12:36;;;;;;;2.10;0.45;;;16.00;98.40;;;;;;4955336;28;20236;-88
2022/09/16 11:15:02;;;;;;;3.38;0.68;;;16.10;99.20;;;;;;4955243;28;20185;-92
2022/09/16 11:17:52;;;;;;;7.18;0.90;;;16.20;99.40;;;;;;4950456;29;20207;-89
2022/09/16 11:20:48;;;;;;;4.97;1.30;;;16.30;98.60;;;;;;4956253;29;20201;-88
2022/09/16 11:23:59;;;;;;;6.75;0.95;;;16.50;99.20;;;;;;4953126;29;20529;-86
2022/09/16 11:26:49;;;;;;;7.93;1.10;;;16.80;97.00;;;;;;4956602;29;20174;-89
2022/09/16 11:29:42;;;;;;;6.93;0.95;;;17.00;97.70;;;;;;4956512;28;20201;-89
2022/09/16 11:32:39;;;;;;;4.15;0.73;;;17.10;97.10;;;;;;4954919;29;20232;-89
2022/09/16 11:35:33;;;;;;;4.63;0.82;;;17.30;98.00;;;;;;4956193;29;20324;-92
2022/09/16 11:38:08;;;;;;;3.90;0.88;;;17.40;97.10;;;;;;4949368;29;20229;-87
2022/09/16 11:40:50;;;;;;;3.15;0.60;;;17.60;94.50;;;;;;4939270;29;20655;-87
2022/09/16 11:43:47;;;;;;;2.78;0.80;;;17.60;94.90;;;;;;4941898;28;20232;-88
2022/09/16 11:46:22;;;;;;;6.57;0.73;;;17.40;95.10;;;;;;4942084;28;20699;-90
2022/09/16 11:49:16;;;;;;;4.13;0.77;;;17.10;95.00;;;;;;4954513;29;20611;-89
2022/09/16 11:52:08;;;;;;;5.15;0.77;;;16.70;96.50;;;;;;4935362;29;20238;-90
2022/09/16 11:54:54;;;;;;;4.72;0.65;;;16.30;96.50;;;;;;4935812;28;20637;-89
2022/09/16 11:57:24;;;;;;;2.13;0.57;;;16.10;97.70;;;;;;4936781;29;20158;-89
2022/09/16 12:00:01;;;;;;;4.30;0.77;;;16.20;97.40;;;;;;4954958;28;20264;-89
2022/09/16 12:02:58;;;;;;;3.08;0.75;;;16.40;96.30;;;;;;4954099;29;20541;-88
2022/09/16 12:05:29;;;;;;;2.70;0.85;;;16.70;95.60;;;;;;4956008;28;20312;-89
2022/09/16 12:08:32;;;;;;;3.25;0.90;;;16.90;95.90;;;;;;4956255;28;20181;-90
2022/09/16 12:11:17;;;;;;;4.18;0.90;;;17.10;95.20;;;;;;4955767;29;20220;-89
2022/09/16 12:13:49;;;;;;;5.25;1.48;;;17.30;95.30;;;;;;4948914;28;20252;-90
2022/09/16 12:16:36;;;;;;;5.70;0.85;;;17.40;95.60;;;;;;4936829;29;20174;-89
2022/09/16 12:19:10;;;;;;;4.18;0.75;;;17.50;95.40;;;;;;4944376;29;20185;-90
2022/09/16 12:21:44;;;;;;;6.47;0.98;;;17.70;95.00;;;;;;4949840;28;20217;-88
2022/09/16 12:24:45;;;;;;;6.18;0.80;;;17.80;94.90;;;;;;4935371;29;20221;-89
2022/09/16 12:27:39;;;;;;;4.80;0.90;;;18.00;93.60;;;;;;4915329;29;20212;-89
2022/09/16 12:30:15;;;;;;;4.70;0.80;;;18.10;94.40;;;;;;4935659;29;20178;-89
2022/09/16 12:32:54;;;;;;;4.85;0.85;;;18.20;94.10;;;;;;4935591;29;20173;-88
2022/09/16 12:35:33;;;;;;;6.32;1.45;;;18.30;94.10;;;;;;4955282;29;20624;-88
2022/09/16 12:37:59;;;;;;;2.65;0.73;;;18.40;94.00;;;;;;4958878;28;20512;-89
2022/09/16 12:40:47;;;;;;;5.30;0.90;;;18.40;94.20;;;;;;4958374;28;20209;-88
2022/09/16 12:43:41;;;;;;;5.60;0.93;;;18.50;93.40;;;;;;4959583;28;20165;-85
2022/09/16 12:46:39;;;;;;;4.70;0.93;;;18.60;91.60;;;;;;4958236;29;20173;-88
2022/09/16 12:49:37;;;;;;;5.53;1.08;;;18.70;92.30;;;;;;4958588;28;20600;-89
2022/09/16 12:52:18;;;;;;;2.55;1.13;;;18.70;90.50;;;;;;4950261;28;20237;-88
2022/09/16 12:55:18;;;;;;;4.10;0.65;;;18.80;90.50;;;;;;4938953;29;20185;-88
2022/09/16 12:57:59;;;;;;;4.30;0.90;;;18.90;90.30;;;;;;4931134;29;20212;-88
2022/09/16 13:00:30;;;;;;;5.63;0.93;;;19.00;84.60;;;;;;4938954;29;20210;-87
2022/09/16 13:03:15;;;;;;;3.95;0.90;;;19.10;90.00;;;;;;4939816;29;20181;-88
2022/09/16 13:05:46;;;;;;;3.53;1.02;;;19.10;90.10;;;;;;4939965;29;20170;-90
2022/09/16 13:08:28;;;;;;;5.70;1.60;;;19.00;91.00;;;;;;4938850;29;20559;-87
2022/09/16 13:11:06;;;;;;;5.50;1.35;;;19.00;92.40;;;;;;4940012;29;20217;-87
2022/09/16 13:13:36;;;;;;;4.22;0.73;;;18.90;91.80;;;;;;4939766;29;20516;-90
2022/09/16 13:16:05;;;;;;;5.72;0.80;;;19.00;92.00;;;;;;4938501;29;20192;-88
2022/09/16 13:18:39;;;;;;;6.85;1.00;;;19.10;92.40;;;;;;4939495;29;20185;-87
2022/09/16 13:21:21;;;;;;;7.35;0.80;;;19.10;92.10;;;;;;4938209;29;20540;-88
2022/09/16 13:23:52;;;;;;;5.47;0.90;;;18.80;92.20;;;;;;4938238;29;20170;-87
2022/09/16 13:26:18;;;;;;;7.47;1.20;;;18.40;92.90;;;;;;4938497;29;20182;-88